Main page
METAR-TAF:

METAR-TAF

Airports :

Tiree Airport

Tiree, Scotland

latitude: 56-30N, longitude: 006-53W, elevation: 12 m

Current weather observation

The report was made 28 minutes ago, at 09:20 UTC
Wind 22 kt from the East/Southeast
Temperature 11°C
Humidity 82%
Pressure 1025 hPa
Visibility 10 km or more
Overcast at a height of 1700 ft

METAR: EGPU 170920Z 12022KT 9999 OVC017 11/08 Q1025

Time: 09:48 (09:48 UTC)

Forecast

The report was made 1 hour and 47 minutes ago, at 08:01 UTC
Forecast valid from 17 at 09 UTC to 17 at 18 UTC
Wind 18 kt from the Southeast
Visibility 10 km or more
Scattered clouds at a height of 1800 ft
Temporary
from 17 at 09 UTC to 17 at 18 UTC
Wind 22 kt from the Southeast with gusts up to 32 kt
Probability 30% :
Temporary
from 17 at 09 UTC to 17 at 13 UTC
Visibility: 8000 m
Broken clouds at a height of 1400 ft

TAF: EGPU 170801Z 1709/1718 13018KT 9999 SCT018 TEMPO 1709/1718 14022G32KT PROB30 TEMPO 1709/1713 8000 BKN014

Weather observations and forecasts of more than 4000 airports (METAR and TAF reports).

The available stations are represented by yellow and red dots on the map.

Hover mouse over dot to see the name of the station.

Then click to see weather observations and forecasts.

To change the map : click on the green buttons with a black cross to zoom in, on the green button with a dash to zoom out, or on the green arrows for adjacent maps.


METAR-TAF: